Terminal Aerodrome Forecast
Issued by NWS

Current Version | Previous Version | Text Only | Print | Product List | Glossary On
Versions: 1 2 3 4 5 6 7 8 9 10 11 12 13
000
FTUS42 TJSJ 231130
TAFJPS
TAF
TJPS 231130Z 2312/2412 09005KT P6SM FEW030 FEW070
     FM231400 15015KT P6SM FEW030 SCT060
     FM231800 16016G24KT P6SM VCSH FEW040 SCT060 BKN180
     FM232300 10004KT P6SM FEW035 SCT080 BKN250
     AMD NOT SKED=

USA.gov is the U.S. government's official web portal to all federal, state and local government web resources and services.